sensor_id;sensor_type;location;lat;lon;timestamp;temperature;humidity
20590;DHT22;10453;50.810;12.540;2024-02-14T00:01:42;3.50;99.90
20590;DHT22;10453;50.810;12.540;2024-02-14T00:06:00;3.70;99.90
20590;DHT22;10453;50.810;12.540;2024-02-14T00:10:17;3.70;99.90
20590;DHT22;10453;50.810;12.540;2024-02-14T00:14:35;3.80;99.90
20590;DHT22;10453;50.810;12.540;2024-02-14T00:18:52;3.80;99.90
20590;DHT22;10453;50.810;12.540;2024-02-14T00:23:09;3.90;99.90
20590;DHT22;10453;50.810;12.540;2024-02-14T00:27:27;3.90;99.90
20590;DHT22;10453;50.810;12.540;2024-02-14T00:31:44;3.90;99.90
20590;DHT22;10453;50.810;12.540;2024-02-14T00:36:01;4.00;99.90
20590;DHT22;10453;50.810;12.540;2024-02-14T00:40:19;4.00;99.90
20590;DHT22;10453;50.810;12.540;2024-02-14T00:44:36;4.00;99.90
20590;DHT22;10453;50.810;12.540;2024-02-14T00:48:53;4.10;99.90
20590;DHT22;10453;50.810;12.540;2024-02-14T00:53:11;4.20;99.90
20590;DHT22;10453;50.810;12.540;2024-02-14T00:57:30;4.20;99.90
20590;DHT22;10453;50.810;12.540;2024-02-14T01:01:49;4.30;99.90
20590;DHT22;10453;50.810;12.540;2024-02-14T01:06:06;4.30;99.90
20590;DHT22;10453;50.810;12.540;2024-02-14T01:10:23;4.50;99.90
20590;DHT22;10453;50.810;12.540;2024-02-14T01:14:41;4.60;99.90
20590;DHT22;10453;50.810;12.540;2024-02-14T01:18:59;4.60;99.90
20590;DHT22;10453;50.810;12.540;2024-02-14T01:23:16;4.60;99.90
20590;DHT22;10453;50.810;12.540;2024-02-14T01:27:33;4.60;99.90
20590;DHT22;10453;50.810;12.540;2024-02-14T01:31:51;4.60;99.90
20590;DHT22;10453;50.810;12.540;2024-02-14T01:36:08;4.80;99.90
20590;DHT22;10453;50.810;12.540;2024-02-14T01:44:43;4.80;99.90
20590;DHT22;10453;50.810;12.540;2024-02-14T01:49:00;4.90;99.90
20590;DHT22;10453;50.810;12.540;2024-02-14T01:53:18;4.90;99.90
20590;DHT22;10453;50.810;12.540;2024-02-14T01:57:36;4.90;99.90
20590;DHT22;10453;50.810;12.540;2024-02-14T02:01:55;4.80;99.90
20590;DHT22;10453;50.810;12.540;2024-02-14T02:06:13;4.70;99.90
20590;DHT22;10453;50.810;12.540;2024-02-14T02:10:32;4.70;99.90
20590;DHT22;10453;50.810;12.540;2024-02-14T02:14:50;4.70;99.90
20590;DHT22;10453;50.810;12.540;2024-02-14T02:19:07;4.70;99.90
20590;DHT22;10453;50.810;12.540;2024-02-14T02:23:26;4.80;99.90
20590;DHT22;10453;50.810;12.540;2024-02-14T02:27:44;5.00;99.90
20590;DHT22;10453;50.810;12.540;2024-02-14T02:32:01;5.10;99.90
20590;DHT22;10453;50.810;12.540;2024-02-14T02:36:18;5.10;99.90
20590;DHT22;10453;50.810;12.540;2024-02-14T02:40:36;5.10;99.90
20590;DHT22;10453;50.810;12.540;2024-02-14T02:44:54;5.10;99.90
20590;DHT22;10453;50.810;12.540;2024-02-14T02:49:12;5.20;99.90
20590;DHT22;10453;50.810;12.540;2024-02-14T02:53:31;5.20;99.90
20590;DHT22;10453;50.810;12.540;2024-02-14T02:57:49;5.20;99.90
20590;DHT22;10453;50.810;12.540;2024-02-14T03:02:06;5.10;99.90
20590;DHT22;10453;50.810;12.540;2024-02-14T03:06:26;5.10;99.90
20590;DHT22;10453;50.810;12.540;2024-02-14T03:10:44;5.10;99.90
20590;DHT22;10453;50.810;12.540;2024-02-14T03:15:04;5.20;99.90
20590;DHT22;10453;50.810;12.540;2024-02-14T03:19:22;5.20;99.90
20590;DHT22;10453;50.810;12.540;2024-02-14T03:23:40;5.30;99.90
20590;DHT22;10453;50.810;12.540;2024-02-14T03:27:58;5.30;99.90
20590;DHT22;10453;50.810;12.540;2024-02-14T03:32:15;5.30;99.90
20590;DHT22;10453;50.810;12.540;2024-02-14T03:36:33;5.30;99.90
20590;DHT22;10453;50.810;12.540;2024-02-14T03:40:50;5.40;99.90
20590;DHT22;10453;50.810;12.540;2024-02-14T03:45:08;5.40;99.90
20590;DHT22;10453;50.810;12.540;2024-02-14T03:49:26;5.40;99.90
20590;DHT22;10453;50.810;12.540;2024-02-14T03:53:43;5.40;99.90
20590;DHT22;10453;50.810;12.540;2024-02-14T03:58:00;5.40;99.90
20590;DHT22;10453;50.810;12.540;2024-02-14T04:02:18;5.40;99.90
20590;DHT22;10453;50.810;12.540;2024-02-14T04:06:35;5.50;99.90
20590;DHT22;10453;50.810;12.540;2024-02-14T04:10:53;5.50;99.90
20590;DHT22;10453;50.810;12.540;2024-02-14T04:15:13;5.60;99.90
20590;DHT22;10453;50.810;12.540;2024-02-14T04:19:31;5.70;99.90
20590;DHT22;10453;50.810;12.540;2024-02-14T04:23:48;5.80;99.90
20590;DHT22;10453;50.810;12.540;2024-02-14T04:28:06;5.90;99.90
20590;DHT22;10453;50.810;12.540;2024-02-14T04:32:23;5.90;99.90
20590;DHT22;10453;50.810;12.540;2024-02-14T04:36:42;6.00;99.90
20590;DHT22;10453;50.810;12.540;2024-02-14T04:40:59;6.10;99.90
20590;DHT22;10453;50.810;12.540;2024-02-14T04:45:16;6.10;99.90
20590;DHT22;10453;50.810;12.540;2024-02-14T04:49:33;6.10;99.90
20590;DHT22;10453;50.810;12.540;2024-02-14T04:53:51;6.10;99.90
20590;DHT22;10453;50.810;12.540;2024-02-14T04:58:09;6.20;99.90
20590;DHT22;10453;50.810;12.540;2024-02-14T05:02:27;6.20;99.90
20590;DHT22;10453;50.810;12.540;2024-02-14T05:06:45;6.20;99.90
20590;DHT22;10453;50.810;12.540;2024-02-14T05:11:03;6.30;99.90
20590;DHT22;10453;50.810;12.540;2024-02-14T05:15:21;6.40;99.90
20590;DHT22;10453;50.810;12.540;2024-02-14T05:19:38;6.50;99.90
20590;DHT22;10453;50.810;12.540;2024-02-14T05:23:59;6.50;99.90
20590;DHT22;10453;50.810;12.540;2024-02-14T05:28:16;6.50;99.90
20590;DHT22;10453;50.810;12.540;2024-02-14T05:32:35;6.50;99.90
20590;DHT22;10453;50.810;12.540;2024-02-14T05:36:53;6.60;99.90
20590;DHT22;10453;50.810;12.540;2024-02-14T05:41:10;6.60;99.90
20590;DHT22;10453;50.810;12.540;2024-02-14T05:45:28;6.60;99.90
20590;DHT22;10453;50.810;12.540;2024-02-14T05:49:46;6.70;99.90
20590;DHT22;10453;50.810;12.540;2024-02-14T05:54:04;6.70;99.90
20590;DHT22;10453;50.810;12.540;2024-02-14T05:58:21;6.70;99.90
20590;DHT22;10453;50.810;12.540;2024-02-14T06:02:38;6.70;99.90
20590;DHT22;10453;50.810;12.540;2024-02-14T06:06:59;6.80;99.90
20590;DHT22;10453;50.810;12.540;2024-02-14T06:11:16;6.80;99.90
20590;DHT22;10453;50.810;12.540;2024-02-14T06:15:34;6.90;99.90
20590;DHT22;10453;50.810;12.540;2024-02-14T06:19:51;6.90;99.90
20590;DHT22;10453;50.810;12.540;2024-02-14T06:24:08;7.00;99.90
20590;DHT22;10453;50.810;12.540;2024-02-14T06:28:27;7.00;99.90
20590;DHT22;10453;50.810;12.540;2024-02-14T06:32:45;7.10;99.90
20590;DHT22;10453;50.810;12.540;2024-02-14T06:37:02;7.10;99.90
20590;DHT22;10453;50.810;12.540;2024-02-14T06:41:21;7.10;99.90
20590;DHT22;10453;50.810;12.540;2024-02-14T06:45:38;7.10;99.90
20590;DHT22;10453;50.810;12.540;2024-02-14T06:49:56;7.10;99.90
20590;DHT22;10453;50.810;12.540;2024-02-14T06:54:13;7.10;99.90
20590;DHT22;10453;50.810;12.540;2024-02-14T06:58:30;7.20;99.90
20590;DHT22;10453;50.810;12.540;2024-02-14T07:02:48;7.20;99.90
20590;DHT22;10453;50.810;12.540;2024-02-14T07:07:07;7.30;99.90
20590;DHT22;10453;50.810;12.540;2024-02-14T07:11:25;7.40;99.90
20590;DHT22;10453;50.810;12.540;2024-02-14T07:15:43;7.40;99.90
20590;DHT22;10453;50.810;12.540;2024-02-14T07:20:01;7.40;99.90
20590;DHT22;10453;50.810;12.540;2024-02-14T07:24:19;7.50;99.90
20590;DHT22;10453;50.810;12.540;2024-02-14T07:28:36;7.50;99.90
20590;DHT22;10453;50.810;12.540;2024-02-14T07:32:53;7.60;99.90
20590;DHT22;10453;50.810;12.540;2024-02-14T07:37:11;7.60;99.90
20590;DHT22;10453;50.810;12.540;2024-02-14T07:41:28;7.60;99.90
20590;DHT22;10453;50.810;12.540;2024-02-14T07:45:46;7.60;99.90
20590;DHT22;10453;50.810;12.540;2024-02-14T07:50:03;7.70;99.90
20590;DHT22;10453;50.810;12.540;2024-02-14T07:54:20;7.60;99.90
20590;DHT22;10453;50.810;12.540;2024-02-14T07:58:38;7.70;99.90
20590;DHT22;10453;50.810;12.540;2024-02-14T08:02:56;7.80;99.90
20590;DHT22;10453;50.810;12.540;2024-02-14T08:07:13;7.80;99.90
20590;DHT22;10453;50.810;12.540;2024-02-14T08:11:30;7.90;99.90
20590;DHT22;10453;50.810;12.540;2024-02-14T08:15:48;8.00;99.90
20590;DHT22;10453;50.810;12.540;2024-02-14T08:20:05;8.10;99.90
20590;DHT22;10453;50.810;12.540;2024-02-14T08:24:25;8.20;99.90
20590;DHT22;10453;50.810;12.540;2024-02-14T08:28:42;8.30;99.90
20590;DHT22;10453;50.810;12.540;2024-02-14T08:33:00;8.30;99.90
20590;DHT22;10453;50.810;12.540;2024-02-14T08:37:17;8.40;99.90
20590;DHT22;10453;50.810;12.540;2024-02-14T08:41:36;8.40;99.90
20590;DHT22;10453;50.810;12.540;2024-02-14T08:45:54;8.80;99.90
20590;DHT22;10453;50.810;12.540;2024-02-14T08:50:11;9.00;99.90
20590;DHT22;10453;50.810;12.540;2024-02-14T08:54:29;9.00;99.90
20590;DHT22;10453;50.810;12.540;2024-02-14T08:58:48;9.30;99.90
20590;DHT22;10453;50.810;12.540;2024-02-14T09:03:05;9.10;99.90
20590;DHT22;10453;50.810;12.540;2024-02-14T09:07:23;8.90;99.90
20590;DHT22;10453;50.810;12.540;2024-02-14T09:11:40;8.90;99.90
20590;DHT22;10453;50.810;12.540;2024-02-14T09:15:58;8.90;99.90
20590;DHT22;10453;50.810;12.540;2024-02-14T09:20:18;8.90;99.90
20590;DHT22;10453;50.810;12.540;2024-02-14T09:24:36;9.00;99.90
20590;DHT22;10453;50.810;12.540;2024-02-14T09:28:54;9.20;99.90
20590;DHT22;10453;50.810;12.540;2024-02-14T09:33:11;9.30;99.90
20590;DHT22;10453;50.810;12.540;2024-02-14T09:37:29;9.20;99.90
20590;DHT22;10453;50.810;12.540;2024-02-14T09:41:51;9.40;99.90
20590;DHT22;10453;50.810;12.540;2024-02-14T09:46:14;9.30;99.90
20590;DHT22;10453;50.810;12.540;2024-02-14T09:50:32;9.10;99.90
20590;DHT22;10453;50.810;12.540;2024-02-14T09:54:52;9.00;99.90
20590;DHT22;10453;50.810;12.540;2024-02-14T09:59:10;8.90;99.90
20590;DHT22;10453;50.810;12.540;2024-02-14T10:03:29;9.10;99.90
20590;DHT22;10453;50.810;12.540;2024-02-14T10:07:46;9.10;99.90
20590;DHT22;10453;50.810;12.540;2024-02-14T10:12:04;9.20;99.90
20590;DHT22;10453;50.810;12.540;2024-02-14T10:16:21;9.30;99.90
20590;DHT22;10453;50.810;12.540;2024-02-14T10:20:55;9.50;99.90
20590;DHT22;10453;50.810;12.540;2024-02-14T10:25:13;9.70;99.90
20590;DHT22;10453;50.810;12.540;2024-02-14T10:29:31;9.70;99.90
20590;DHT22;10453;50.810;12.540;2024-02-14T10:33:49;9.90;99.90
20590;DHT22;10453;50.810;12.540;2024-02-14T10:38:08;9.80;99.90
20590;DHT22;10453;50.810;12.540;2024-02-14T10:42:26;9.80;99.90
20590;DHT22;10453;50.810;12.540;2024-02-14T10:46:44;9.90;99.90
20590;DHT22;10453;50.810;12.540;2024-02-14T10:51:05;9.70;99.90
20590;DHT22;10453;50.810;12.540;2024-02-14T10:55:30;9.90;99.90
20590;DHT22;10453;50.810;12.540;2024-02-14T10:59:48;10.00;99.90
20590;DHT22;10453;50.810;12.540;2024-02-14T11:04:07;10.10;99.90
20590;DHT22;10453;50.810;12.540;2024-02-14T11:08:25;10.40;99.90
20590;DHT22;10453;50.810;12.540;2024-02-14T11:12:42;10.80;99.90
20590;DHT22;10453;50.810;12.540;2024-02-14T11:17:02;10.60;99.90
20590;DHT22;10453;50.810;12.540;2024-02-14T11:21:20;10.60;99.90
20590;DHT22;10453;50.810;12.540;2024-02-14T11:25:38;11.20;99.90
20590;DHT22;10453;50.810;12.540;2024-02-14T11:29:55;11.50;99.90
20590;DHT22;10453;50.810;12.540;2024-02-14T11:34:15;11.00;99.90
20590;DHT22;10453;50.810;12.540;2024-02-14T11:38:32;11.20;99.90
20590;DHT22;10453;50.810;12.540;2024-02-14T11:42:50;11.70;99.90
20590;DHT22;10453;50.810;12.540;2024-02-14T11:47:09;11.80;99.90
20590;DHT22;10453;50.810;12.540;2024-02-14T11:51:28;12.10;99.90
20590;DHT22;10453;50.810;12.540;2024-02-14T11:55:45;11.60;99.90
20590;DHT22;10453;50.810;12.540;2024-02-14T12:00:07;11.20;99.90
20590;DHT22;10453;50.810;12.540;2024-02-14T12:04:24;11.00;99.90
20590;DHT22;10453;50.810;12.540;2024-02-14T12:08:42;10.70;99.90
20590;DHT22;10453;50.810;12.540;2024-02-14T12:13:10;10.20;99.90
20590;DHT22;10453;50.810;12.540;2024-02-14T12:17:29;9.80;99.90
20590;DHT22;10453;50.810;12.540;2024-02-14T12:21:50;10.10;99.90
20590;DHT22;10453;50.810;12.540;2024-02-14T12:26:07;10.10;99.90
20590;DHT22;10453;50.810;12.540;2024-02-14T12:35:14;9.60;99.90
20590;DHT22;10453;50.810;12.540;2024-02-14T12:39:33;10.20;99.90
20590;DHT22;10453;50.810;12.540;2024-02-14T12:43:51;10.40;99.90
20590;DHT22;10453;50.810;12.540;2024-02-14T12:48:10;10.50;99.90
20590;DHT22;10453;50.810;12.540;2024-02-14T12:52:27;10.70;99.90
20590;DHT22;10453;50.810;12.540;2024-02-14T12:56:45;10.80;99.90
20590;DHT22;10453;50.810;12.540;2024-02-14T13:01:02;10.80;99.90
20590;DHT22;10453;50.810;12.540;2024-02-14T13:05:23;10.90;99.90
20590;DHT22;10453;50.810;12.540;2024-02-14T13:09:44;11.10;99.90
20590;DHT22;10453;50.810;12.540;2024-02-14T13:14:05;10.80;99.90
20590;DHT22;10453;50.810;12.540;2024-02-14T13:18:22;10.50;99.90
20590;DHT22;10453;50.810;12.540;2024-02-14T13:22:41;10.30;99.90
20590;DHT22;10453;50.810;12.540;2024-02-14T13:26:59;10.00;99.90
20590;DHT22;10453;50.810;12.540;2024-02-14T13:31:17;10.00;99.90
20590;DHT22;10453;50.810;12.540;2024-02-14T13:35:34;10.00;99.90
20590;DHT22;10453;50.810;12.540;2024-02-14T13:39:55;10.10;99.90
20590;DHT22;10453;50.810;12.540;2024-02-14T13:44:13;10.00;99.90
20590;DHT22;10453;50.810;12.540;2024-02-14T13:48:30;10.00;99.90
20590;DHT22;10453;50.810;12.540;2024-02-14T13:52:47;10.00;99.90
20590;DHT22;10453;50.810;12.540;2024-02-14T13:57:05;10.10;99.90
20590;DHT22;10453;50.810;12.540;2024-02-14T14:01:22;10.00;99.90
20590;DHT22;10453;50.810;12.540;2024-02-14T14:05:40;10.00;99.90
20590;DHT22;10453;50.810;12.540;2024-02-14T14:09:59;9.90;99.90
20590;DHT22;10453;50.810;12.540;2024-02-14T14:14:17;9.70;99.90
20590;DHT22;10453;50.810;12.540;2024-02-14T14:18:36;9.70;99.90
20590;DHT22;10453;50.810;12.540;2024-02-14T14:22:54;9.70;99.90
20590;DHT22;10453;50.810;12.540;2024-02-14T14:27:12;9.70;99.90
20590;DHT22;10453;50.810;12.540;2024-02-14T14:31:31;9.60;99.90
20590;DHT22;10453;50.810;12.540;2024-02-14T14:35:50;9.50;99.90
20590;DHT22;10453;50.810;12.540;2024-02-14T14:40:10;9.50;99.90
20590;DHT22;10453;50.810;12.540;2024-02-14T14:44:28;9.50;99.90
20590;DHT22;10453;50.810;12.540;2024-02-14T14:48:47;9.40;99.90
20590;DHT22;10453;50.810;12.540;2024-02-14T14:53:05;9.40;99.90
20590;DHT22;10453;50.810;12.540;2024-02-14T14:57:26;9.40;99.90
20590;DHT22;10453;50.810;12.540;2024-02-14T15:01:44;9.50;99.90
20590;DHT22;10453;50.810;12.540;2024-02-14T15:06:01;9.50;99.90
20590;DHT22;10453;50.810;12.540;2024-02-14T15:10:21;9.50;99.90
20590;DHT22;10453;50.810;12.540;2024-02-14T15:14:39;9.50;99.90
20590;DHT22;10453;50.810;12.540;2024-02-14T15:18:56;9.60;99.90
20590;DHT22;10453;50.810;12.540;2024-02-14T15:23:14;9.70;99.90
20590;DHT22;10453;50.810;12.540;2024-02-14T15:27:31;9.70;99.90
20590;DHT22;10453;50.810;12.540;2024-02-14T15:31:49;9.60;99.90
20590;DHT22;10453;50.810;12.540;2024-02-14T15:36:25;9.60;99.90
20590;DHT22;10453;50.810;12.540;2024-02-14T15:40:43;9.60;99.90
20590;DHT22;10453;50.810;12.540;2024-02-14T15:45:00;9.50;99.90
20590;DHT22;10453;50.810;12.540;2024-02-14T15:49:18;9.50;99.90
20590;DHT22;10453;50.810;12.540;2024-02-14T15:53:36;9.50;99.90
20590;DHT22;10453;50.810;12.540;2024-02-14T15:57:55;9.50;99.90
20590;DHT22;10453;50.810;12.540;2024-02-14T16:02:14;9.40;99.90
20590;DHT22;10453;50.810;12.540;2024-02-14T16:06:31;9.40;99.90
20590;DHT22;10453;50.810;12.540;2024-02-14T16:10:52;9.30;99.90
20590;DHT22;10453;50.810;12.540;2024-02-14T16:15:14;9.40;99.90
20590;DHT22;10453;50.810;12.540;2024-02-14T16:19:32;9.30;99.90
20590;DHT22;10453;50.810;12.540;2024-02-14T16:23:50;9.30;99.90
20590;DHT22;10453;50.810;12.540;2024-02-14T16:28:07;9.30;99.90
20590;DHT22;10453;50.810;12.540;2024-02-14T16:32:24;9.30;99.90
20590;DHT22;10453;50.810;12.540;2024-02-14T16:36:42;9.30;99.90
20590;DHT22;10453;50.810;12.540;2024-02-14T16:40:59;9.20;99.90
20590;DHT22;10453;50.810;12.540;2024-02-14T16:45:17;9.30;99.90
20590;DHT22;10453;50.810;12.540;2024-02-14T16:49:35;9.30;99.90
20590;DHT22;10453;50.810;12.540;2024-02-14T16:53:53;9.20;99.90
20590;DHT22;10453;50.810;12.540;2024-02-14T16:58:10;9.30;99.90
20590;DHT22;10453;50.810;12.540;2024-02-14T17:02:27;9.30;99.90
20590;DHT22;10453;50.810;12.540;2024-02-14T17:06:45;9.30;99.90
20590;DHT22;10453;50.810;12.540;2024-02-14T17:11:05;9.30;99.90
20590;DHT22;10453;50.810;12.540;2024-02-14T17:15:23;9.20;99.90
20590;DHT22;10453;50.810;12.540;2024-02-14T17:19:40;9.20;99.90
20590;DHT22;10453;50.810;12.540;2024-02-14T17:23:58;9.20;99.90
20590;DHT22;10453;50.810;12.540;2024-02-14T17:28:16;9.20;99.90
20590;DHT22;10453;50.810;12.540;2024-02-14T17:32:33;9.20;99.90
20590;DHT22;10453;50.810;12.540;2024-02-14T17:36:57;9.20;99.90
20590;DHT22;10453;50.810;12.540;2024-02-14T17:41:15;9.30;99.90
20590;DHT22;10453;50.810;12.540;2024-02-14T17:45:32;9.30;99.90
20590;DHT22;10453;50.810;12.540;2024-02-14T17:49:52;9.30;99.90
20590;DHT22;10453;50.810;12.540;2024-02-14T17:54:10;9.30;99.90
20590;DHT22;10453;50.810;12.540;2024-02-14T17:58:28;9.30;99.90
20590;DHT22;10453;50.810;12.540;2024-02-14T18:02:48;9.30;99.90
20590;DHT22;10453;50.810;12.540;2024-02-14T18:07:06;9.30;99.90
20590;DHT22;10453;50.810;12.540;2024-02-14T18:11:25;9.40;99.90
20590;DHT22;10453;50.810;12.540;2024-02-14T18:15:42;9.40;99.90
20590;DHT22;10453;50.810;12.540;2024-02-14T18:19:59;9.30;99.90
20590;DHT22;10453;50.810;12.540;2024-02-14T18:24:17;9.20;99.90
20590;DHT22;10453;50.810;12.540;2024-02-14T18:28:35;9.10;99.90
20590;DHT22;10453;50.810;12.540;2024-02-14T18:33:00;9.10;99.90
20590;DHT22;10453;50.810;12.540;2024-02-14T18:37:18;9.10;99.90
20590;DHT22;10453;50.810;12.540;2024-02-14T18:41:35;9.10;99.90
20590;DHT22;10453;50.810;12.540;2024-02-14T18:45:54;9.20;99.90
20590;DHT22;10453;50.810;12.540;2024-02-14T18:50:11;9.20;99.90
20590;DHT22;10453;50.810;12.540;2024-02-14T18:54:28;9.30;99.90
20590;DHT22;10453;50.810;12.540;2024-02-14T18:58:47;9.30;99.90
20590;DHT22;10453;50.810;12.540;2024-02-14T19:03:06;9.30;99.90
20590;DHT22;10453;50.810;12.540;2024-02-14T19:07:23;9.30;99.90
20590;DHT22;10453;50.810;12.540;2024-02-14T19:11:42;9.20;99.90
20590;DHT22;10453;50.810;12.540;2024-02-14T19:15:59;9.20;99.90
20590;DHT22;10453;50.810;12.540;2024-02-14T19:20:28;9.30;99.90
20590;DHT22;10453;50.810;12.540;2024-02-14T19:24:47;9.30;99.90
20590;DHT22;10453;50.810;12.540;2024-02-14T19:29:05;9.40;99.90
20590;DHT22;10453;50.810;12.540;2024-02-14T19:33:22;9.40;99.90
20590;DHT22;10453;50.810;12.540;2024-02-14T19:37:39;9.50;99.90
20590;DHT22;10453;50.810;12.540;2024-02-14T19:41:57;9.50;99.90
20590;DHT22;10453;50.810;12.540;2024-02-14T19:46:14;9.50;99.90
20590;DHT22;10453;50.810;12.540;2024-02-14T19:50:31;9.50;99.90
20590;DHT22;10453;50.810;12.540;2024-02-14T19:54:49;9.50;99.90
20590;DHT22;10453;50.810;12.540;2024-02-14T19:59:07;9.60;99.90
20590;DHT22;10453;50.810;12.540;2024-02-14T20:03:24;9.60;99.90
20590;DHT22;10453;50.810;12.540;2024-02-14T20:07:42;9.50;99.90
20590;DHT22;10453;50.810;12.540;2024-02-14T20:12:00;9.50;99.90
20590;DHT22;10453;50.810;12.540;2024-02-14T20:16:17;9.50;99.90
20590;DHT22;10453;50.810;12.540;2024-02-14T20:20:35;9.50;99.90
20590;DHT22;10453;50.810;12.540;2024-02-14T20:24:53;9.50;99.90
20590;DHT22;10453;50.810;12.540;2024-02-14T20:29:10;9.50;99.90
20590;DHT22;10453;50.810;12.540;2024-02-14T20:33:27;9.50;99.90
20590;DHT22;10453;50.810;12.540;2024-02-14T20:37:45;9.60;99.90
20590;DHT22;10453;50.810;12.540;2024-02-14T20:42:04;9.60;99.90
20590;DHT22;10453;50.810;12.540;2024-02-14T20:46:23;9.60;99.90
20590;DHT22;10453;50.810;12.540;2024-02-14T20:50:43;9.50;99.90
20590;DHT22;10453;50.810;12.540;2024-02-14T20:55:01;9.50;99.90
20590;DHT22;10453;50.810;12.540;2024-02-14T20:59:18;9.40;99.90
20590;DHT22;10453;50.810;12.540;2024-02-14T21:03:36;9.40;99.90
20590;DHT22;10453;50.810;12.540;2024-02-14T21:07:53;9.30;99.90
20590;DHT22;10453;50.810;12.540;2024-02-14T21:12:11;9.40;99.90
20590;DHT22;10453;50.810;12.540;2024-02-14T21:16:29;9.30;99.90
20590;DHT22;10453;50.810;12.540;2024-02-14T21:20:47;9.30;99.90
20590;DHT22;10453;50.810;12.540;2024-02-14T21:25:04;9.20;99.90
20590;DHT22;10453;50.810;12.540;2024-02-14T21:29:23;9.20;99.90
20590;DHT22;10453;50.810;12.540;2024-02-14T21:33:43;9.10;99.90
20590;DHT22;10453;50.810;12.540;2024-02-14T21:38:02;9.00;99.90
20590;DHT22;10453;50.810;12.540;2024-02-14T21:42:20;9.00;99.90
20590;DHT22;10453;50.810;12.540;2024-02-14T21:46:39;8.90;99.90
20590;DHT22;10453;50.810;12.540;2024-02-14T21:50:56;8.90;99.90
20590;DHT22;10453;50.810;12.540;2024-02-14T21:55:16;9.00;99.90
20590;DHT22;10453;50.810;12.540;2024-02-14T21:59:34;8.90;99.90
20590;DHT22;10453;50.810;12.540;2024-02-14T22:03:51;8.90;99.90
20590;DHT22;10453;50.810;12.540;2024-02-14T22:08:09;8.80;99.90
20590;DHT22;10453;50.810;12.540;2024-02-14T22:12:27;8.90;99.90
20590;DHT22;10453;50.810;12.540;2024-02-14T22:16:45;8.90;99.90
20590;DHT22;10453;50.810;12.540;2024-02-14T22:21:02;8.90;99.90
20590;DHT22;10453;50.810;12.540;2024-02-14T22:25:21;8.90;99.90
20590;DHT22;10453;50.810;12.540;2024-02-14T22:29:40;8.90;99.90
20590;DHT22;10453;50.810;12.540;2024-02-14T22:33:58;9.00;99.90
20590;DHT22;10453;50.810;12.540;2024-02-14T22:38:17;9.00;99.90
20590;DHT22;10453;50.810;12.540;2024-02-14T22:42:34;9.10;99.90
20590;DHT22;10453;50.810;12.540;2024-02-14T22:46:52;9.10;99.90
20590;DHT22;10453;50.810;12.540;2024-02-14T22:51:10;9.10;99.90
20590;DHT22;10453;50.810;12.540;2024-02-14T22:55:27;9.10;99.90
20590;DHT22;10453;50.810;12.540;2024-02-14T22:59:44;9.10;99.90
20590;DHT22;10453;50.810;12.540;2024-02-14T23:04:01;9.10;99.90
20590;DHT22;10453;50.810;12.540;2024-02-14T23:08:21;9.10;99.90
20590;DHT22;10453;50.810;12.540;2024-02-14T23:12:38;9.20;99.90
20590;DHT22;10453;50.810;12.540;2024-02-14T23:16:56;9.20;99.90
20590;DHT22;10453;50.810;12.540;2024-02-14T23:21:14;9.20;99.90
20590;DHT22;10453;50.810;12.540;2024-02-14T23:25:32;9.20;99.90
20590;DHT22;10453;50.810;12.540;2024-02-14T23:29:49;9.20;99.90
20590;DHT22;10453;50.810;12.540;2024-02-14T23:34:07;9.20;99.90
20590;DHT22;10453;50.810;12.540;2024-02-14T23:38:25;9.20;99.90
20590;DHT22;10453;50.810;12.540;2024-02-14T23:42:43;9.20;99.90
20590;DHT22;10453;50.810;12.540;2024-02-14T23:47:01;9.30;99.90
20590;DHT22;10453;50.810;12.540;2024-02-14T23:51:18;9.30;99.90
20590;DHT22;10453;50.810;12.540;2024-02-14T23:55:36;9.30;99.90
20590;DHT22;10453;50.810;12.540;2024-02-14T23:59:54;9.40;99.90
